Volciha, Russia
Current Conditions -  °F | °C
As of 10:30 AM on Wednesday 22 Oct 2014 (Local Time) from UASS Reporting Station
Clear Clear  
Wind Chill: 34°   Ceiling: Unl
Heat Index: 37°   Visibility: 6mi
Dew Point: 28°   Wind: 4mph
Humidity: 70%   Direction: 130°SE
Pressure: 30.27"   Gusts: NA
Location:  52.02°N, 80.37°E
Report Text: UASS 220330Z 13002MPS 100V170 CAVOK 03/M02 Q1025 R26/0///60NOSIG RMK QFE750/1000
Loading
Personal Weather Stations






























Interactive Weather Map
Tropical Storm Tracking
New forecast layout! Learn more

10-Day Weather Forecast

Advertisements
Track Severe Weather on mobile